Clipper Newhaven — C6ZL3 — position and weather

sailwx.info

Track history (hours):
 
Tides and Currents Weather Stations Pressure Air Temp Water Temp Dewpoint Dewpoint Depression Visibility Wind Speed Wind Dir Waves Ship Positions

Clipper Newhaven

Last reported at 2017-Dec-11 12:00 UTC. Time now 2017-Dec-17 10:09 UTC.
Position N 09°23' W 079°56'.

Length 144 m; draft 8.2 m.

Type: Ship. MMSI: 311058400.

Date/timePositionNaut miles runAvg speedWind from/ knotsBaromVisibWave heightAir tempDewpointWater temp
2017-Dec-11 12:00N 09°23' W 079°56'0 0.0
2017-Dec-11 11:30N 09°23' W 079°56'0 0.0
2017-Dec-11 11:00N 09°23' W 079°56'0 0.0
2017-Dec-11 10:30N 09°23' W 079°56'0 0.0
2017-Dec-11 10:00N 09°23' W 079°56'0 0.1
2017-Dec-11 09:30N 09°23' W 079°56'0 0.0
2017-Dec-11 09:00N 09°23' W 079°56'0 0.0
2017-Dec-11 08:27N 09°23' W 079°56'0 0.0
2017-Dec-11 08:00N 09°23' W 079°56'0 0.0
2017-Dec-11 07:30N 09°23' W 079°56'0 0.0
2017-Dec-11 07:00N 09°23' W 079°56'0 0.1
2017-Dec-11 06:30N 09°23' W 079°56'0 0.0
2017-Dec-11 06:00N 09°23' W 079°56'0 0.1
2017-Dec-11 05:30N 09°23' W 079°56'0 0.1
2017-Dec-11 05:00N 09°23' W 079°56'0 0.0
2017-Dec-11 04:30N 09°23' W 079°56'0 0.1
2017-Dec-11 04:00N 09°23' W 079°56'0 0.0
2017-Dec-11 03:30N 09°23' W 079°56'0 0.0
2017-Dec-11 03:00N 09°23' W 079°56'0 0.0
2017-Dec-11 02:30N 09°23' W 079°56'0 0.2
2017-Dec-11 02:00N 09°22' W 079°56'1 2.3
2017-Dec-11 01:30N 09°23' W 079°55'3 6.8
2017-Dec-11 01:00N 09°27' W 079°55'1 1.5
2017-Dec-11 00:28N 09°27' W 079°56'0 0.0
2017-Dec-10 23:58N 09°27' W 079°56'0 0.0
2017-Dec-10 23:26N 09°27' W 079°56'0 0.0
2017-Dec-10 22:59N 09°27' W 079°56'0 0.0
2017-Dec-10 22:31N 09°27' W 079°56'0 0.0
2017-Dec-10 21:58N 09°27' W 079°56'0 0.0
2017-Dec-10 21:28N 09°27' W 079°56'0 0.0
2017-Dec-10 20:58N 09°27' W 079°56'0 0.0
2017-Dec-10 20:25N 09°27' W 079°56'0 0.0
2017-Dec-10 19:58N 09°27' W 079°56'0 0.0
2017-Dec-10 19:22N 09°27' W 079°56'0 0.0
2017-Dec-10 18:58N 09°27' W 079°56'0 0.0
2017-Dec-10 18:29N 09°27' W 079°56'0 0.0
2017-Dec-10 17:59N 09°27' W 079°56'0 0.0
2017-Dec-10 17:29N 09°27' W 079°56'0 0.0
2017-Dec-10 16:59N 09°27' W 079°56'0 0.0
2017-Dec-10 16:29N 09°27' W 079°56'0 0.0
2017-Dec-10 15:59N 09°27' W 079°56'0 0.0
2017-Dec-10 15:26N 09°27' W 079°56'0 0.0
2017-Dec-10 14:59N 09°27' W 079°56'0 0.0
2017-Dec-10 14:29N 09°27' W 079°56'0 0.0
2017-Dec-10 13:59N 09°27' W 079°56'0 0.0
2017-Dec-10 13:29N 09°27' W 079°56'0 0.4
2017-Dec-10 13:00N 09°27' W 079°56'4 7.1
2017-Dec-10 12:30N 09°30' W 079°54'612.0
2017-Dec-10 12:00N 09°36' W 079°53'611.9
2017-Dec-10 11:30N 09°41' W 079°50'  
Track history (hours):
 
Tides and Currents Weather Stations Pressure Air Temp Water Temp Dewpoint Dewpoint Depression Visibility Wind Speed Wind Dir Waves Ship Positions

Clipper Newhaven

Last reported at 2017-Dec-11 12:00 UTC. Time now 2017-Dec-17 10:09 UTC.
Position N 09°23' W 079°56'.

Length 144 m; draft 8.2 m.

Type: Ship. MMSI: 311058400.

Date/timePositionNaut miles runAvg speedWind from/ knotsBaromVisibWave heightAir tempDewpointWater temp
2017-Dec-11 12:00N 09°23' W 079°56'0 0.0
2017-Dec-11 11:30N 09°23' W 079°56'0 0.0
2017-Dec-11 11:00N 09°23' W 079°56'0 0.0
2017-Dec-11 10:30N 09°23' W 079°56'0 0.0
2017-Dec-11 10:00N 09°23' W 079°56'0 0.1
2017-Dec-11 09:30N 09°23' W 079°56'0 0.0
2017-Dec-11 09:00N 09°23' W 079°56'0 0.0
2017-Dec-11 08:27N 09°23' W 079°56'0 0.0
2017-Dec-11 08:00N 09°23' W 079°56'0 0.0
2017-Dec-11 07:30N 09°23' W 079°56'0 0.0
2017-Dec-11 07:00N 09°23' W 079°56'0 0.1
2017-Dec-11 06:30N 09°23' W 079°56'0 0.0
2017-Dec-11 06:00N 09°23' W 079°56'0 0.1
2017-Dec-11 05:30N 09°23' W 079°56'0 0.1
2017-Dec-11 05:00N 09°23' W 079°56'0 0.0
2017-Dec-11 04:30N 09°23' W 079°56'0 0.1
2017-Dec-11 04:00N 09°23' W 079°56'0 0.0
2017-Dec-11 03:30N 09°23' W 079°56'0 0.0
2017-Dec-11 03:00N 09°23' W 079°56'0 0.0
2017-Dec-11 02:30N 09°23' W 079°56'0 0.2
2017-Dec-11 02:00N 09°22' W 079°56'1 2.3
2017-Dec-11 01:30N 09°23' W 079°55'3 6.8
2017-Dec-11 01:00N 09°27' W 079°55'1 1.5
2017-Dec-11 00:28N 09°27' W 079°56'0 0.0
2017-Dec-10 23:58N 09°27' W 079°56'0 0.0
2017-Dec-10 23:26N 09°27' W 079°56'0 0.0
2017-Dec-10 22:59N 09°27' W 079°56'0 0.0
2017-Dec-10 22:31N 09°27' W 079°56'0 0.0
2017-Dec-10 21:58N 09°27' W 079°56'0 0.0
2017-Dec-10 21:28N 09°27' W 079°56'0 0.0
2017-Dec-10 20:58N 09°27' W 079°56'0 0.0
2017-Dec-10 20:25N 09°27' W 079°56'0 0.0
2017-Dec-10 19:58N 09°27' W 079°56'0 0.0
2017-Dec-10 19:22N 09°27' W 079°56'0 0.0
2017-Dec-10 18:58N 09°27' W 079°56'0 0.0
2017-Dec-10 18:29N 09°27' W 079°56'0 0.0
2017-Dec-10 17:59N 09°27' W 079°56'0 0.0
2017-Dec-10 17:29N 09°27' W 079°56'0 0.0
2017-Dec-10 16:59N 09°27' W 079°56'0 0.0
2017-Dec-10 16:29N 09°27' W 079°56'0 0.0
2017-Dec-10 15:59N 09°27' W 079°56'0 0.0
2017-Dec-10 15:26N 09°27' W 079°56'0 0.0
2017-Dec-10 14:59N 09°27' W 079°56'0 0.0
2017-Dec-10 14:29N 09°27' W 079°56'0 0.0
2017-Dec-10 13:59N 09°27' W 079°56'0 0.0
2017-Dec-10 13:29N 09°27' W 079°56'0 0.4
2017-Dec-10 13:00N 09°27' W 079°56'4 7.1
2017-Dec-10 12:30N 09°30' W 079°54'612.0
2017-Dec-10 12:00N 09°36' W 079°53'611.9
2017-Dec-10 11:30N 09°41' W 079°50'  

Dump ship's entire track history